createdAt,value
2018-03-06T00:01:47.689Z,3.93
2018-03-06T00:04:15.301Z,3.91
2018-03-06T00:06:43.124Z,3.88
2018-03-06T00:09:10.944Z,3.79
2018-03-06T00:11:38.573Z,3.73
2018-03-06T00:14:06.382Z,3.78
2018-03-06T00:16:33.954Z,3.80
2018-03-06T00:19:01.555Z,3.88
2018-03-06T00:21:29.143Z,3.93
2018-03-06T00:23:56.792Z,3.94
2018-03-06T00:26:24.388Z,3.99
2018-03-06T00:28:52.149Z,4.02
2018-03-06T00:31:19.909Z,4.07
2018-03-06T00:33:47.504Z,4.07
2018-03-06T00:36:15.341Z,4.07
2018-03-06T00:38:42.929Z,4.08
2018-03-06T00:41:10.514Z,4.13
2018-03-06T00:43:38.294Z,4.08
2018-03-06T00:46:05.920Z,4.04
2018-03-06T00:48:33.558Z,3.96
2018-03-06T00:51:01.320Z,3.81
2018-03-06T00:53:29.057Z,3.65
2018-03-06T00:55:56.653Z,3.42
2018-03-06T00:58:24.245Z,3.39
2018-03-06T01:00:51.906Z,3.42
2018-03-06T01:03:19.493Z,3.43
2018-03-06T01:05:47.259Z,3.46
2018-03-06T01:08:14.858Z,3.49
2018-03-06T01:10:42.458Z,3.52
2018-03-06T01:13:10.088Z,3.62
2018-03-06T01:15:37.706Z,3.70
2018-03-06T01:18:05.297Z,3.72
2018-03-06T01:20:33.062Z,3.77
2018-03-06T01:23:00.881Z,3.74
2018-03-06T01:25:28.520Z,3.79
2018-03-06T01:27:56.114Z,3.78
2018-03-06T01:30:23.939Z,3.79
2018-03-06T01:32:51.531Z,3.75
2018-03-06T01:35:19.234Z,3.77
2018-03-06T01:37:47.090Z,3.82
2018-03-06T01:40:14.704Z,3.84
2018-03-06T01:42:42.286Z,3.83
2018-03-06T01:45:09.880Z,3.87
2018-03-06T01:47:37.472Z,3.93
2018-03-06T01:50:05.133Z,3.92
2018-03-06T01:52:32.733Z,3.94
2018-03-06T01:55:00.322Z,3.93
2018-03-06T01:57:27.953Z,3.91
2018-03-06T01:59:55.543Z,3.88
2018-03-06T02:02:23.202Z,3.97
2018-03-06T02:04:50.850Z,4.04
2018-03-06T02:07:18.495Z,4.06
2018-03-06T02:09:46.089Z,4.10
2018-03-06T02:12:13.845Z,4.06
2018-03-06T02:14:41.667Z,3.98
2018-03-06T02:17:09.360Z,4.00
2018-03-06T02:19:37.175Z,3.97
2018-03-06T02:22:04.894Z,3.97
2018-03-06T02:24:32.473Z,3.95
2018-03-06T02:27:00.107Z,3.97
2018-03-06T02:29:27.694Z,4.00
2018-03-06T02:31:55.299Z,4.03
2018-03-06T02:34:22.877Z,4.01
2018-03-06T02:36:50.720Z,4.04
2018-03-06T02:39:18.378Z,4.07
2018-03-06T02:41:46.156Z,4.05
2018-03-06T02:44:13.748Z,4.07
2018-03-06T02:46:41.343Z,4.06
2018-03-06T02:49:09.074Z,4.08
2018-03-06T02:51:36.768Z,4.10
2018-03-06T02:54:04.380Z,4.19
2018-03-06T02:56:31.965Z,4.23
2018-03-06T02:58:59.782Z,4.29
2018-03-06T03:01:27.367Z,4.35
2018-03-06T03:03:55.026Z,4.35
2018-03-06T03:06:22.836Z,4.46
2018-03-06T03:08:50.657Z,4.49
2018-03-06T03:11:18.477Z,4.52
2018-03-06T03:13:46.058Z,4.58
2018-03-06T03:16:13.706Z,4.56
2018-03-06T03:18:41.294Z,4.64
2018-03-06T03:21:08.876Z,4.66
2018-03-06T03:23:36.475Z,4.73
2018-03-06T03:26:04.061Z,4.80
2018-03-06T03:28:31.783Z,4.89
2018-03-06T03:30:59.518Z,4.74
2018-03-06T03:33:27.339Z,4.68
2018-03-06T03:35:55.132Z,4.60
2018-03-06T03:38:22.715Z,4.61
2018-03-06T03:40:50.380Z,4.58
2018-03-06T03:43:17.965Z,4.58
2018-03-06T03:45:45.531Z,4.58
2018-03-06T03:48:13.342Z,4.49
2018-03-06T03:50:40.941Z,4.42
2018-03-06T03:53:08.610Z,4.47
2018-03-06T03:55:36.195Z,4.46
2018-03-06T03:58:03.766Z,4.47
2018-03-06T04:00:31.373Z,4.32
2018-03-06T04:02:59.134Z,4.28
2018-03-06T04:05:26.783Z,4.24
2018-03-06T04:07:54.585Z,4.21
2018-03-06T04:10:22.406Z,4.18
2018-03-06T04:12:50.222Z,4.07
2018-03-06T04:15:17.854Z,3.97
2018-03-06T04:17:45.506Z,3.95
2018-03-06T04:20:13.100Z,3.87
2018-03-06T04:22:40.864Z,3.84
2018-03-06T04:25:08.814Z,3.74
2018-03-06T04:27:36.410Z,3.79
2018-03-06T04:30:04.349Z,3.83
2018-03-06T04:32:31.949Z,3.84
2018-03-06T04:34:59.787Z,3.81
2018-03-06T04:37:27.558Z,3.80
2018-03-06T04:39:55.226Z,3.86
2018-03-06T04:42:22.880Z,3.75
2018-03-06T04:44:50.473Z,3.77
2018-03-06T04:47:18.071Z,3.77
2018-03-06T04:49:45.674Z,3.78
2018-03-06T04:52:13.512Z,3.81
2018-03-06T04:54:41.331Z,3.78
2018-03-06T04:57:08.945Z,3.71
2018-03-06T04:59:36.767Z,3.67
2018-03-06T05:02:04.354Z,3.67
2018-03-06T05:04:31.941Z,3.63
2018-03-06T05:06:59.569Z,3.67
2018-03-06T05:09:27.153Z,3.69
2018-03-06T05:11:54.939Z,3.73
2018-03-06T05:14:22.559Z,3.83
2018-03-06T05:16:50.392Z,3.80
2018-03-06T05:19:18.034Z,3.74
2018-03-06T05:21:45.679Z,3.71
2018-03-06T05:24:13.222Z,3.79
2018-03-06T05:26:40.839Z,3.83
2018-03-06T05:29:08.438Z,3.77
2018-03-06T05:31:36.301Z,3.69
2018-03-06T05:34:04.118Z,3.67
2018-03-06T05:36:31.723Z,3.68
2018-03-06T05:38:59.316Z,3.68
2018-03-06T05:41:26.915Z,3.71
2018-03-06T05:43:54.560Z,3.76
2018-03-06T05:46:22.376Z,3.84
2018-03-06T05:48:49.907Z,3.88
2018-03-06T05:51:17.506Z,3.91
2018-03-06T05:53:45.076Z,3.90
2018-03-06T05:56:12.834Z,3.85
2018-03-06T05:58:40.430Z,3.78
2018-03-06T06:01:08.009Z,3.67
2018-03-06T06:03:35.690Z,3.56
2018-03-06T06:06:03.270Z,3.43
2018-03-06T06:08:30.865Z,3.39
2018-03-06T06:10:58.577Z,3.34
2018-03-06T06:13:26.449Z,3.27
2018-03-06T06:15:54.055Z,3.18
2018-03-06T06:18:21.618Z,3.17
2018-03-06T06:20:49.200Z,3.17
2018-03-06T06:23:16.834Z,3.29
2018-03-06T06:25:44.402Z,3.35
2018-03-06T06:28:11.990Z,3.44
2018-03-06T06:30:39.832Z,3.55
2018-03-06T06:33:07.418Z,3.65
2018-03-06T06:35:34.998Z,3.70
2018-03-06T06:38:02.640Z,3.74
2018-03-06T06:40:30.205Z,3.63
2018-03-06T06:42:57.769Z,3.47
2018-03-06T06:45:25.394Z,3.53
2018-03-06T06:47:52.954Z,3.66
2018-03-06T06:50:20.562Z,3.62
2018-03-06T06:52:48.350Z,3.67
2018-03-06T06:55:15.914Z,3.61
2018-03-06T06:57:43.727Z,3.65
2018-03-06T07:00:11.354Z,3.68
2018-03-06T07:02:39.140Z,3.73
2018-03-06T07:05:06.702Z,3.68
2018-03-06T07:07:34.333Z,3.78
2018-03-06T07:10:01.900Z,3.76
2018-03-06T07:12:29.470Z,3.81
2018-03-06T07:14:57.251Z,3.86
2018-03-06T07:17:24.816Z,3.78
2018-03-06T07:19:52.384Z,3.75
2018-03-06T07:22:20.016Z,3.83
2018-03-06T07:24:47.575Z,3.87
2018-03-06T07:27:15.143Z,4.00
2018-03-06T07:29:43.003Z,4.01
2018-03-06T07:32:10.562Z,4.12
2018-03-06T07:34:38.121Z,4.17
2018-03-06T07:37:05.763Z,4.32
2018-03-06T07:39:33.322Z,4.48
2018-03-06T07:42:01.047Z,4.50
2018-03-06T07:44:28.672Z,4.40
2018-03-06T07:46:56.268Z,4.51
2018-03-06T07:49:23.834Z,4.56
2018-03-06T07:51:51.458Z,4.66
2018-03-06T07:54:19.024Z,4.53
2018-03-06T07:56:46.588Z,4.33
2018-03-06T07:59:14.215Z,4.27
2018-03-06T08:01:41.956Z,4.20
2018-03-06T08:04:09.671Z,3.92
2018-03-06T08:06:37.290Z,3.70
2018-03-06T08:09:04.915Z,3.54
2018-03-06T08:11:32.662Z,3.55
2018-03-06T08:14:00.296Z,3.70
2018-03-06T08:16:28.098Z,3.81
2018-03-06T08:18:55.657Z,3.96
2018-03-06T08:21:23.278Z,4.07
2018-03-06T08:23:50.848Z,4.26
2018-03-06T08:26:18.668Z,4.50
2018-03-06T08:28:46.488Z,4.60
2018-03-06T08:31:14.206Z,4.50
2018-03-06T08:33:41.766Z,4.49
2018-03-06T08:36:09.375Z,4.41
2018-03-06T08:38:36.938Z,4.50
2018-03-06T08:41:04.505Z,4.72
2018-03-06T08:43:32.081Z,4.85
2018-03-06T08:45:59.641Z,5.05
2018-03-06T08:48:27.260Z,5.08
2018-03-06T08:50:54.858Z,5.01
2018-03-06T08:53:22.665Z,5.05
2018-03-06T08:55:50.225Z,4.78
2018-03-06T08:58:17.977Z,4.61
2018-03-06T09:00:45.819Z,4.56
2018-03-06T09:03:13.538Z,4.54
2018-03-06T09:05:41.149Z,4.48
2018-03-06T09:08:08.734Z,4.53
2018-03-06T09:10:36.330Z,4.47
2018-03-06T09:13:03.947Z,4.49
2018-03-06T09:15:31.690Z,4.47
2018-03-06T09:17:59.245Z,4.55
2018-03-06T09:20:26.806Z,4.54
2018-03-06T09:22:54.362Z,4.67
2018-03-06T09:25:22.198Z,4.82
2018-03-06T09:27:49.916Z,5.08
2018-03-06T09:30:17.613Z,5.30
2018-03-06T09:32:45.190Z,5.49
2018-03-06T09:35:12.746Z,5.62
2018-03-06T09:37:40.588Z,5.67
2018-03-06T09:40:08.168Z,5.70
2018-03-06T09:42:35.722Z,5.73
2018-03-06T09:45:03.308Z,5.86
2018-03-06T09:47:30.862Z,5.96
2018-03-06T09:49:58.678Z,6.15
2018-03-06T09:52:26.248Z,6.35
2018-03-06T09:54:53.820Z,6.63
2018-03-06T09:57:21.390Z,6.86
2018-03-06T09:59:49.149Z,7.09
2018-03-06T10:02:16.770Z,7.52
2018-03-06T10:04:44.334Z,8.11
2018-03-06T10:07:12.101Z,8.50
2018-03-06T10:09:39.710Z,8.55
2018-03-06T10:12:07.270Z,8.28
2018-03-06T10:14:35.156Z,8.09
2018-03-06T10:17:02.972Z,7.92
2018-03-06T10:19:30.569Z,7.72
2018-03-06T10:21:58.133Z,7.53
2018-03-06T10:24:25.675Z,7.67
2018-03-06T10:26:53.290Z,7.93
2018-03-06T10:29:20.954Z,8.15
2018-03-06T10:31:48.515Z,8.49
2018-03-06T10:34:16.110Z,8.91
2018-03-06T10:36:43.916Z,9.57
2018-03-06T10:39:11.735Z,10.57
2018-03-06T10:41:39.294Z,11.66
2018-03-06T10:44:06.849Z,11.98
2018-03-06T10:46:34.480Z,12.05
2018-03-06T10:49:02.056Z,11.95
2018-03-06T10:51:29.924Z,11.16
2018-03-06T10:53:57.616Z,10.60
2018-03-06T10:56:25.173Z,10.78
2018-03-06T10:58:52.769Z,10.87
2018-03-06T11:01:25.345Z,10.88
2018-03-06T11:03:53.134Z,11.32
2018-03-06T11:06:21.852Z,12.27
2018-03-06T11:08:49.476Z,12.58
2018-03-06T11:11:17.069Z,13.05
2018-03-06T11:13:44.634Z,13.01
2018-03-06T11:16:12.338Z,12.14
2018-03-06T11:18:39.908Z,11.69
2018-03-06T11:21:07.469Z,11.76
2018-03-06T11:23:35.279Z,12.50
2018-03-06T11:26:02.841Z,13.18
2018-03-06T11:28:30.462Z,13.55
2018-03-06T11:30:58.232Z,13.65
2018-03-06T11:33:25.799Z,14.30
2018-03-06T11:35:53.671Z,15.00
2018-03-06T11:38:21.229Z,15.43
2018-03-06T11:40:48.790Z,16.02
2018-03-06T11:43:16.622Z,16.39
2018-03-06T11:45:44.185Z,16.16
2018-03-06T11:48:11.958Z,16.07
2018-03-06T11:50:39.526Z,16.02
2018-03-06T11:53:07.098Z,16.26
2018-03-06T11:55:34.722Z,16.28
2018-03-06T11:58:02.422Z,16.15
2018-03-06T12:00:29.989Z,16.14
2018-03-06T12:02:57.657Z,16.34
2018-03-06T12:05:25.218Z,15.86
2018-03-06T12:07:52.827Z,15.46
2018-03-06T12:10:20.390Z,15.17
2018-03-06T12:12:47.970Z,14.62
2018-03-06T12:15:15.561Z,14.26
2018-03-06T12:17:43.162Z,13.89
2018-03-06T12:20:10.794Z,13.59
2018-03-06T12:22:38.607Z,13.24
2018-03-06T12:25:06.210Z,12.99
2018-03-06T12:27:33.782Z,12.83
2018-03-06T12:30:01.355Z,12.58
2018-03-06T12:32:28.981Z,12.48
2018-03-06T12:34:56.710Z,12.36
2018-03-06T12:37:24.282Z,12.37
2018-03-06T12:39:52.153Z,12.33
2018-03-06T12:42:19.740Z,12.26
2018-03-06T12:44:47.358Z,12.32
2018-03-06T12:47:15.186Z,12.31
2018-03-06T12:49:42.897Z,12.94
2018-03-06T12:52:10.639Z,13.80
2018-03-06T12:54:38.215Z,14.76
2018-03-06T12:57:05.843Z,15.53
2018-03-06T12:59:33.492Z,15.80
2018-03-06T13:02:01.296Z,15.73
2018-03-06T13:04:28.910Z,15.62
2018-03-06T13:06:56.482Z,15.49
2018-03-06T13:09:24.109Z,15.42
2018-03-06T13:11:51.865Z,14.78
2018-03-06T13:14:19.494Z,14.32
2018-03-06T13:16:47.082Z,14.59
2018-03-06T13:19:14.650Z,15.06
2018-03-06T13:21:42.437Z,15.46
2018-03-06T13:24:10.046Z,15.78
2018-03-06T13:26:37.610Z,16.18
2018-03-06T13:29:05.286Z,16.54
2018-03-06T13:31:33.009Z,16.67
2018-03-06T13:34:00.655Z,17.32
2018-03-06T13:36:28.446Z,17.55
2018-03-06T13:38:56.057Z,17.89
2018-03-06T13:41:23.881Z,18.05
2018-03-06T13:43:51.700Z,17.71
2018-03-06T13:46:19.519Z,17.78
2018-03-06T13:48:47.085Z,17.70
2018-03-06T13:51:14.654Z,18.07
2018-03-06T13:53:42.221Z,17.83
2018-03-06T13:56:09.831Z,17.56
2018-03-06T13:58:37.446Z,17.46
2018-03-06T14:01:05.022Z,17.74
2018-03-06T14:03:32.586Z,17.58
2018-03-06T14:06:00.162Z,17.46
2018-03-06T14:08:27.770Z,16.90
2018-03-06T14:10:55.482Z,16.05
2018-03-06T14:13:23.215Z,15.43
2018-03-06T14:15:51.136Z,14.56
2018-03-06T14:18:18.745Z,13.36
2018-03-06T14:20:46.471Z,12.98
2018-03-06T14:23:14.109Z,12.80
2018-03-06T14:25:41.656Z,12.63
2018-03-06T14:28:09.408Z,12.45
2018-03-06T14:30:37.244Z,12.22
2018-03-06T14:33:05.061Z,12.07
2018-03-06T14:35:32.830Z,11.84
2018-03-06T14:38:00.395Z,11.55
2018-03-06T14:40:28.088Z,11.39
2018-03-06T14:42:55.654Z,11.02
2018-03-06T14:45:23.213Z,10.58
2018-03-06T14:47:51.068Z,10.28
2018-03-06T14:50:18.886Z,10.11
2018-03-06T14:52:46.460Z,10.06
2018-03-06T14:55:14.224Z,9.88
2018-03-06T14:57:41.780Z,9.77
2018-03-06T15:00:09.448Z,9.66
2018-03-06T15:02:36.991Z,9.53
2018-03-06T15:05:04.793Z,9.65
2018-03-06T15:07:32.495Z,9.58
2018-03-06T15:10:00.230Z,9.51
2018-03-06T15:12:27.873Z,9.40
2018-03-06T15:14:55.667Z,9.39
2018-03-06T15:17:23.484Z,9.61
2018-03-06T15:19:51.059Z,9.85
2018-03-06T15:22:18.820Z,10.20
2018-03-06T15:24:46.453Z,10.19
2018-03-06T15:27:14.028Z,9.97
2018-03-06T15:29:41.617Z,9.65
2018-03-06T15:32:09.299Z,9.56
2018-03-06T15:34:37.110Z,9.05
2018-03-06T15:37:04.928Z,8.90
2018-03-06T15:39:32.497Z,8.62
2018-03-06T15:42:00.068Z,8.38
2018-03-06T15:44:27.659Z,7.86
2018-03-06T15:46:55.399Z,7.53
2018-03-06T15:49:22.999Z,7.28
2018-03-06T15:51:50.557Z,7.07
2018-03-06T15:54:18.354Z,6.99
2018-03-06T15:56:46.092Z,6.96
2018-03-06T15:59:13.657Z,6.83
2018-03-06T16:01:41.301Z,6.81
2018-03-06T16:04:09.126Z,6.84
2018-03-06T16:06:36.859Z,6.77
2018-03-06T16:09:04.552Z,6.70
2018-03-06T16:11:32.281Z,6.56
2018-03-06T16:14:00.099Z,6.42
2018-03-06T16:16:27.917Z,6.44
2018-03-06T16:18:55.486Z,6.49
2018-03-06T16:21:23.140Z,6.47
2018-03-06T16:23:50.872Z,6.41
2018-03-06T16:26:18.558Z,6.39
2018-03-06T16:28:46.118Z,6.30
2018-03-06T16:31:13.925Z,6.23
2018-03-06T16:33:41.744Z,6.24
2018-03-06T16:36:09.317Z,6.24
2018-03-06T16:38:36.941Z,6.03
2018-03-06T16:41:04.514Z,5.98
2018-03-06T16:43:32.096Z,5.92
2018-03-06T16:45:59.674Z,5.84
2018-03-06T16:48:27.242Z,5.79
2018-03-06T16:50:54.877Z,5.70
2018-03-06T16:53:22.687Z,5.64
2018-03-06T16:55:50.505Z,5.59
2018-03-06T16:58:18.108Z,5.63
2018-03-06T17:00:45.820Z,5.61
2018-03-06T17:03:13.459Z,5.61
2018-03-06T17:05:41.028Z,5.50
2018-03-06T17:08:08.750Z,5.53
2018-03-06T17:10:36.513Z,5.48
2018-03-06T17:13:04.086Z,5.40
2018-03-06T17:15:31.722Z,5.37
2018-03-06T17:17:59.282Z,5.43
2018-03-06T17:20:26.842Z,5.43
2018-03-06T17:22:54.428Z,5.49
2018-03-06T17:25:21.996Z,5.59
2018-03-06T17:27:49.638Z,5.67
2018-03-06T17:30:17.457Z,5.69
2018-03-06T17:32:45.022Z,5.51
2018-03-06T17:35:12.595Z,5.42
2018-03-06T17:37:40.157Z,5.38
2018-03-06T17:40:07.780Z,5.36
2018-03-06T17:42:35.544Z,5.40
2018-03-06T17:45:03.122Z,5.43
2018-03-06T17:47:30.821Z,5.42
2018-03-06T17:49:58.498Z,5.36
2018-03-06T17:52:26.221Z,5.43
2018-03-06T17:54:54.937Z,5.42
2018-03-06T17:57:22.506Z,5.40
2018-03-06T17:59:50.121Z,5.40
2018-03-06T18:02:17.692Z,5.45
2018-03-06T18:04:45.510Z,5.45
2018-03-06T18:07:13.331Z,5.35
2018-03-06T18:09:40.902Z,5.29
2018-03-06T18:12:08.664Z,5.26
2018-03-06T18:14:36.281Z,5.28
2018-03-06T18:17:04.091Z,5.29
2018-03-06T18:19:31.909Z,5.21
2018-03-06T18:21:59.540Z,5.18
2018-03-06T18:24:27.353Z,5.11
2018-03-06T18:26:55.174Z,5.14
2018-03-06T18:29:22.982Z,5.18
2018-03-06T18:31:50.595Z,5.17
2018-03-06T18:34:18.175Z,5.14
2018-03-06T18:36:45.897Z,5.07
2018-03-06T18:39:13.420Z,5.00
2018-03-06T18:41:41.162Z,4.95
2018-03-06T18:44:08.783Z,4.96
2018-03-06T18:46:36.335Z,4.95
2018-03-06T18:49:04.121Z,4.92
2018-03-06T18:51:31.690Z,4.85
2018-03-06T18:53:59.265Z,4.93
2018-03-06T18:56:26.819Z,4.89
2018-03-06T18:58:54.439Z,4.89
2018-03-06T19:04:35.618Z,4.75
2018-03-06T19:07:08.337Z,4.71
2018-03-06T19:09:35.960Z,4.63
2018-03-06T19:12:03.658Z,4.59
2018-03-06T19:14:31.233Z,4.63
2018-03-06T19:16:58.864Z,4.60
2018-03-06T19:19:26.421Z,4.66
2018-03-06T19:21:53.986Z,4.64
2018-03-06T19:24:21.964Z,4.60
2018-03-06T19:26:49.511Z,4.61
2018-03-06T19:29:17.065Z,4.63
2018-03-06T19:31:44.682Z,4.68
2018-03-06T19:34:12.435Z,4.66
2018-03-06T19:36:40.252Z,4.56
2018-03-06T19:39:07.963Z,4.54
2018-03-06T19:41:35.791Z,4.52
2018-03-06T19:44:03.610Z,4.52
2018-03-06T19:46:31.427Z,4.53
2018-03-06T19:48:58.993Z,4.62
2018-03-06T19:51:26.763Z,4.66
2018-03-06T19:53:54.583Z,4.67
2018-03-06T19:56:22.186Z,4.66
2018-03-06T19:58:49.809Z,4.73
2018-03-06T20:01:17.735Z,4.75
2018-03-06T20:03:45.294Z,4.67
2018-03-06T20:06:12.858Z,4.66
2018-03-06T20:08:40.890Z,4.60
2018-03-06T20:11:08.446Z,4.61
2018-03-06T20:13:36.120Z,4.57
2018-03-06T20:16:04.145Z,4.57
2018-03-06T20:18:31.723Z,4.52
2018-03-06T20:20:59.481Z,4.51
2018-03-06T20:23:27.400Z,4.54
2018-03-06T20:26:00.035Z,4.57
2018-03-06T20:28:27.785Z,4.61
2018-03-06T20:31:01.193Z,4.55
2018-03-06T20:33:29.110Z,4.51
2018-03-06T20:35:56.928Z,4.52
2018-03-06T20:38:30.196Z,4.56
2018-03-06T20:40:58.011Z,4.62
2018-03-06T20:43:25.573Z,4.64
2018-03-06T20:45:58.858Z,4.63
2018-03-06T20:48:26.438Z,4.63
2018-03-06T20:50:53.997Z,4.57
2018-03-06T20:53:27.238Z,4.60
2018-03-06T20:55:55.032Z,4.60
2018-03-06T20:58:22.598Z,4.57
2018-03-06T21:00:50.368Z,4.59
2018-03-06T21:03:17.929Z,4.58
2018-03-06T21:05:45.704Z,4.52
2018-03-06T21:08:13.286Z,4.42
2018-03-06T21:10:40.854Z,4.40
2018-03-06T21:13:08.419Z,4.29
2018-03-06T21:15:36.051Z,4.27
2018-03-06T21:18:03.893Z,4.38
2018-03-06T21:20:31.711Z,4.52
2018-03-06T21:22:59.287Z,4.60
2018-03-06T21:25:27.010Z,4.72
2018-03-06T21:27:54.725Z,4.74
2018-03-06T21:30:22.441Z,4.67
2018-03-06T21:32:50.003Z,4.71
2018-03-06T21:35:17.562Z,4.81
2018-03-06T21:37:45.134Z,4.78
2018-03-06T21:40:12.710Z,4.75
2018-03-06T21:42:40.274Z,4.73
2018-03-06T21:45:07.906Z,4.80
2018-03-06T21:47:35.708Z,5.02
2018-03-06T21:50:03.292Z,5.16
2018-03-06T21:52:30.893Z,5.21
2018-03-06T21:54:58.661Z,5.22
2018-03-06T21:57:26.225Z,5.17
2018-03-06T21:59:53.801Z,4.95
2018-03-06T22:02:21.365Z,4.79
2018-03-06T22:04:49.094Z,4.92
2018-03-06T22:07:16.835Z,5.03
2018-03-06T22:09:44.398Z,5.03
2018-03-06T22:12:11.951Z,4.94
2018-03-06T22:14:39.705Z,4.85
2018-03-06T22:17:07.256Z,4.87
2018-03-06T22:19:34.813Z,4.96
2018-03-06T22:22:02.414Z,5.09
2018-03-06T22:24:30.152Z,5.29
2018-03-06T22:26:57.994Z,5.30
2018-03-06T22:29:25.566Z,5.43
2018-03-06T22:31:53.122Z,5.69
2018-03-06T22:34:20.685Z,5.97
2018-03-06T22:36:48.465Z,6.10
2018-03-06T22:39:16.026Z,6.28
2018-03-06T22:41:43.763Z,6.44
2018-03-06T22:44:11.331Z,6.75
2018-03-06T22:46:38.927Z,7.13
2018-03-06T22:49:06.478Z,7.31
2018-03-06T22:51:34.041Z,7.39
2018-03-06T22:54:01.790Z,7.45
2018-03-06T22:56:29.346Z,7.56
2018-03-06T22:58:56.917Z,7.70
2018-03-06T23:01:24.482Z,8.04
2018-03-06T23:03:52.261Z,8.59
2018-03-06T23:06:19.826Z,8.88
2018-03-06T23:08:47.568Z,8.95
2018-03-06T23:11:15.126Z,9.14
2018-03-06T23:13:42.703Z,9.34
2018-03-06T23:16:10.257Z,9.61
2018-03-06T23:18:37.822Z,9.81
2018-03-06T23:21:05.409Z,9.98
2018-03-06T23:23:33.203Z,9.93
2018-03-06T23:26:00.923Z,9.85
2018-03-06T23:28:28.740Z,9.83
2018-03-06T23:30:56.298Z,9.82
2018-03-06T23:33:24.076Z,9.78
2018-03-06T23:35:51.895Z,9.75
2018-03-06T23:38:19.503Z,9.75
2018-03-06T23:40:47.066Z,9.70
2018-03-06T23:43:14.632Z,9.85
2018-03-06T23:45:42.366Z,9.88
2018-03-06T23:48:10.087Z,9.88
2018-03-06T23:50:37.661Z,9.81
2018-03-06T23:53:05.223Z,9.81
2018-03-06T23:55:32.782Z,9.75
2018-03-06T23:58:00.358Z,9.89
